sensor_id;sensor_type;location;lat;lon;timestamp;P1;durP1;ratioP1;P2;durP2;ratioP2
16828;SDS011;8531;48.078;11.968;2023-08-01T00:00:39;2.45;;;2.25;;
16828;SDS011;8531;48.078;11.968;2023-08-01T00:03:06;4.53;;;2.38;;
16828;SDS011;8531;48.078;11.968;2023-08-01T00:05:33;3.97;;;2.60;;
16828;SDS011;8531;48.078;11.968;2023-08-01T00:07:59;3.42;;;2.30;;
16828;SDS011;8531;48.078;11.968;2023-08-01T00:10:27;2.22;;;1.92;;
16828;SDS011;8531;48.078;11.968;2023-08-01T00:12:53;4.40;;;1.90;;
16828;SDS011;8531;48.078;11.968;2023-08-01T00:15:19;2.92;;;2.03;;
16828;SDS011;8531;48.078;11.968;2023-08-01T00:17:45;4.68;;;2.50;;
16828;SDS011;8531;48.078;11.968;2023-08-01T00:20:11;3.92;;;2.20;;
16828;SDS011;8531;48.078;11.968;2023-08-01T00:22:37;5.28;;;2.50;;
16828;SDS011;8531;48.078;11.968;2023-08-01T00:25:03;3.92;;;2.78;;
16828;SDS011;8531;48.078;11.968;2023-08-01T00:27:29;5.38;;;2.63;;
16828;SDS011;8531;48.078;11.968;2023-08-01T00:29:58;3.05;;;2.15;;
16828;SDS011;8531;48.078;11.968;2023-08-01T00:32:23;3.03;;;2.20;;
16828;SDS011;8531;48.078;11.968;2023-08-01T00:34:50;3.58;;;2.08;;
16828;SDS011;8531;48.078;11.968;2023-08-01T00:37:17;3.58;;;2.00;;
16828;SDS011;8531;48.078;11.968;2023-08-01T00:39:42;4.28;;;2.00;;
16828;SDS011;8531;48.078;11.968;2023-08-01T00:42:08;3.15;;;2.00;;
16828;SDS011;8531;48.078;11.968;2023-08-01T00:44:34;1.80;;;1.70;;
16828;SDS011;8531;48.078;11.968;2023-08-01T00:46:59;2.60;;;1.90;;
16828;SDS011;8531;48.078;11.968;2023-08-01T00:49:25;3.35;;;2.13;;
16828;SDS011;8531;48.078;11.968;2023-08-01T00:51:51;2.60;;;2.10;;
16828;SDS011;8531;48.078;11.968;2023-08-01T00:54:17;3.00;;;1.92;;
16828;SDS011;8531;48.078;11.968;2023-08-01T00:56:43;3.22;;;2.25;;
16828;SDS011;8531;48.078;11.968;2023-08-01T00:59:09;3.53;;;2.40;;
16828;SDS011;8531;48.078;11.968;2023-08-01T01:01:36;4.40;;;2.67;;
16828;SDS011;8531;48.078;11.968;2023-08-01T01:04:02;2.55;;;2.00;;
16828;SDS011;8531;48.078;11.968;2023-08-01T01:06:31;4.25;;;2.28;;
16828;SDS011;8531;48.078;11.968;2023-08-01T01:08:59;2.58;;;1.85;;
16828;SDS011;8531;48.078;11.968;2023-08-01T01:11:25;6.25;;;2.10;;
16828;SDS011;8531;48.078;11.968;2023-08-01T01:13:51;3.58;;;2.08;;
16828;SDS011;8531;48.078;11.968;2023-08-01T01:16:18;4.38;;;2.63;;
16828;SDS011;8531;48.078;11.968;2023-08-01T01:18:44;2.83;;;1.75;;
16828;SDS011;8531;48.078;11.968;2023-08-01T01:21:10;2.67;;;2.22;;
16828;SDS011;8531;48.078;11.968;2023-08-01T01:23:36;2.67;;;2.05;;
16828;SDS011;8531;48.078;11.968;2023-08-01T01:26:03;2.83;;;1.98;;
16828;SDS011;8531;48.078;11.968;2023-08-01T01:28:31;2.55;;;1.67;;
16828;SDS011;8531;48.078;11.968;2023-08-01T01:30:57;4.97;;;2.10;;
16828;SDS011;8531;48.078;11.968;2023-08-01T01:33:24;2.58;;;2.15;;
16828;SDS011;8531;48.078;11.968;2023-08-01T01:35:50;3.35;;;2.58;;
16828;SDS011;8531;48.078;11.968;2023-08-01T01:38:16;2.75;;;1.90;;
16828;SDS011;8531;48.078;11.968;2023-08-01T01:40:42;3.97;;;2.03;;
16828;SDS011;8531;48.078;11.968;2023-08-01T01:43:07;2.30;;;2.08;;
16828;SDS011;8531;48.078;11.968;2023-08-01T01:45:33;3.67;;;2.03;;
16828;SDS011;8531;48.078;11.968;2023-08-01T01:47:59;4.25;;;2.40;;
16828;SDS011;8531;48.078;11.968;2023-08-01T01:50:24;3.92;;;2.17;;
16828;SDS011;8531;48.078;11.968;2023-08-01T01:52:50;2.55;;;1.63;;
16828;SDS011;8531;48.078;11.968;2023-08-01T01:55:16;6.32;;;2.35;;
16828;SDS011;8531;48.078;11.968;2023-08-01T01:57:41;2.72;;;2.22;;
16828;SDS011;8531;48.078;11.968;2023-08-01T02:00:08;2.63;;;2.20;;
16828;SDS011;8531;48.078;11.968;2023-08-01T02:02:35;3.47;;;2.20;;
16828;SDS011;8531;48.078;11.968;2023-08-01T02:05:01;3.10;;;2.17;;
16828;SDS011;8531;48.078;11.968;2023-08-01T02:07:29;4.72;;;2.33;;
16828;SDS011;8531;48.078;11.968;2023-08-01T02:09:54;2.80;;;2.60;;
16828;SDS011;8531;48.078;11.968;2023-08-01T02:12:20;2.97;;;2.17;;
16828;SDS011;8531;48.078;11.968;2023-08-01T02:14:46;2.35;;;2.00;;
16828;SDS011;8531;48.078;11.968;2023-08-01T02:17:12;4.53;;;2.40;;
16828;SDS011;8531;48.078;11.968;2023-08-01T02:19:37;4.05;;;2.88;;
16828;SDS011;8531;48.078;11.968;2023-08-01T02:22:03;3.00;;;2.40;;
16828;SDS011;8531;48.078;11.968;2023-08-01T02:24:29;5.57;;;3.42;;
16828;SDS011;8531;48.078;11.968;2023-08-01T02:26:55;2.90;;;2.60;;
16828;SDS011;8531;48.078;11.968;2023-08-01T02:29:21;5.35;;;3.40;;
16828;SDS011;8531;48.078;11.968;2023-08-01T02:31:46;4.28;;;2.90;;
16828;SDS011;8531;48.078;11.968;2023-08-01T02:34:12;4.68;;;2.90;;
16828;SDS011;8531;48.078;11.968;2023-08-01T02:36:38;3.13;;;2.58;;
16828;SDS011;8531;48.078;11.968;2023-08-01T02:39:05;10.05;;;3.05;;
16828;SDS011;8531;48.078;11.968;2023-08-01T02:41:31;3.03;;;2.60;;
16828;SDS011;8531;48.078;11.968;2023-08-01T02:43:57;2.55;;;2.35;;
16828;SDS011;8531;48.078;11.968;2023-08-01T02:46:23;4.10;;;3.05;;
16828;SDS011;8531;48.078;11.968;2023-08-01T02:48:49;4.20;;;2.42;;
16828;SDS011;8531;48.078;11.968;2023-08-01T02:51:14;3.38;;;2.97;;
16828;SDS011;8531;48.078;11.968;2023-08-01T02:53:40;4.38;;;2.65;;
16828;SDS011;8531;48.078;11.968;2023-08-01T02:56:06;3.47;;;2.30;;
16828;SDS011;8531;48.078;11.968;2023-08-01T02:58:33;3.42;;;2.92;;
16828;SDS011;8531;48.078;11.968;2023-08-01T03:00:59;4.20;;;2.40;;
16828;SDS011;8531;48.078;11.968;2023-08-01T03:03:26;3.58;;;2.60;;
16828;SDS011;8531;48.078;11.968;2023-08-01T03:05:52;5.13;;;3.08;;
16828;SDS011;8531;48.078;11.968;2023-08-01T03:08:17;5.18;;;2.65;;
16828;SDS011;8531;48.078;11.968;2023-08-01T03:10:43;5.18;;;2.70;;
16828;SDS011;8531;48.078;11.968;2023-08-01T03:13:09;4.70;;;2.60;;
16828;SDS011;8531;48.078;11.968;2023-08-01T03:15:35;3.22;;;2.33;;
16828;SDS011;8531;48.078;11.968;2023-08-01T03:18:02;3.75;;;2.40;;
16828;SDS011;8531;48.078;11.968;2023-08-01T03:20:29;4.03;;;2.50;;
16828;SDS011;8531;48.078;11.968;2023-08-01T03:22:54;3.00;;;2.42;;
16828;SDS011;8531;48.078;11.968;2023-08-01T03:25:20;2.65;;;2.45;;
16828;SDS011;8531;48.078;11.968;2023-08-01T03:27:46;3.05;;;2.33;;
16828;SDS011;8531;48.078;11.968;2023-08-01T03:30:11;2.70;;;2.40;;
16828;SDS011;8531;48.078;11.968;2023-08-01T03:32:37;3.03;;;2.20;;
16828;SDS011;8531;48.078;11.968;2023-08-01T03:35:05;4.22;;;2.65;;
16828;SDS011;8531;48.078;11.968;2023-08-01T03:37:31;4.90;;;2.50;;
16828;SDS011;8531;48.078;11.968;2023-08-01T03:39:56;2.85;;;2.42;;
16828;SDS011;8531;48.078;11.968;2023-08-01T03:42:22;6.13;;;2.92;;
16828;SDS011;8531;48.078;11.968;2023-08-01T03:44:48;3.58;;;2.88;;
16828;SDS011;8531;48.078;11.968;2023-08-01T03:47:13;2.85;;;2.13;;
16828;SDS011;8531;48.078;11.968;2023-08-01T03:49:39;2.47;;;2.28;;
16828;SDS011;8531;48.078;11.968;2023-08-01T03:52:05;3.67;;;3.05;;
16828;SDS011;8531;48.078;11.968;2023-08-01T03:54:31;3.55;;;2.42;;
16828;SDS011;8531;48.078;11.968;2023-08-01T03:56:57;4.10;;;2.88;;
16828;SDS011;8531;48.078;11.968;2023-08-01T03:59:22;3.65;;;2.50;;
16828;SDS011;8531;48.078;11.968;2023-08-01T04:01:48;4.75;;;2.65;;
16828;SDS011;8531;48.078;11.968;2023-08-01T04:04:15;3.45;;;2.70;;
16828;SDS011;8531;48.078;11.968;2023-08-01T04:06:41;4.88;;;2.97;;
16828;SDS011;8531;48.078;11.968;2023-08-01T04:09:07;3.60;;;2.70;;
16828;SDS011;8531;48.078;11.968;2023-08-01T04:11:33;8.02;;;3.17;;
16828;SDS011;8531;48.078;11.968;2023-08-01T04:13:58;3.70;;;2.92;;
16828;SDS011;8531;48.078;11.968;2023-08-01T04:16:24;4.63;;;2.92;;
16828;SDS011;8531;48.078;11.968;2023-08-01T04:18:50;4.45;;;2.90;;
16828;SDS011;8531;48.078;11.968;2023-08-01T04:21:15;3.72;;;2.72;;
16828;SDS011;8531;48.078;11.968;2023-08-01T04:23:41;2.80;;;2.53;;
16828;SDS011;8531;48.078;11.968;2023-08-01T04:26:07;4.38;;;2.30;;
16828;SDS011;8531;48.078;11.968;2023-08-01T04:28:33;3.40;;;3.10;;
16828;SDS011;8531;48.078;11.968;2023-08-01T04:30:59;3.25;;;2.50;;
16828;SDS011;8531;48.078;11.968;2023-08-01T04:33:25;3.35;;;2.28;;
16828;SDS011;8531;48.078;11.968;2023-08-01T04:35:51;3.40;;;2.58;;
16828;SDS011;8531;48.078;11.968;2023-08-01T04:38:17;3.60;;;2.30;;
16828;SDS011;8531;48.078;11.968;2023-08-01T04:40:43;4.55;;;2.67;;
16828;SDS011;8531;48.078;11.968;2023-08-01T04:43:09;2.83;;;2.22;;
16828;SDS011;8531;48.078;11.968;2023-08-01T04:45:35;2.97;;;2.40;;
16828;SDS011;8531;48.078;11.968;2023-08-01T04:48:01;4.80;;;2.28;;
16828;SDS011;8531;48.078;11.968;2023-08-01T04:50:26;3.20;;;2.15;;
16828;SDS011;8531;48.078;11.968;2023-08-01T04:52:52;2.25;;;2.05;;
16828;SDS011;8531;48.078;11.968;2023-08-01T04:55:18;3.60;;;2.72;;
16828;SDS011;8531;48.078;11.968;2023-08-01T04:57:44;3.17;;;2.65;;
16828;SDS011;8531;48.078;11.968;2023-08-01T05:00:10;4.18;;;2.95;;
16828;SDS011;8531;48.078;11.968;2023-08-01T05:02:36;3.60;;;2.65;;
16828;SDS011;8531;48.078;11.968;2023-08-01T05:05:02;4.38;;;2.40;;
16828;SDS011;8531;48.078;11.968;2023-08-01T05:07:28;4.90;;;2.88;;
16828;SDS011;8531;48.078;11.968;2023-08-01T05:09:54;4.40;;;2.70;;
16828;SDS011;8531;48.078;11.968;2023-08-01T05:12:20;5.05;;;3.38;;
16828;SDS011;8531;48.078;11.968;2023-08-01T05:14:46;4.57;;;3.00;;
16828;SDS011;8531;48.078;11.968;2023-08-01T05:17:12;4.45;;;2.88;;
16828;SDS011;8531;48.078;11.968;2023-08-01T05:19:38;4.35;;;2.72;;
16828;SDS011;8531;48.078;11.968;2023-08-01T05:22:04;3.75;;;2.60;;
16828;SDS011;8531;48.078;11.968;2023-08-01T05:24:30;7.45;;;3.53;;
16828;SDS011;8531;48.078;11.968;2023-08-01T05:26:55;6.00;;;3.75;;
16828;SDS011;8531;48.078;11.968;2023-08-01T05:29:21;3.83;;;3.03;;
16828;SDS011;8531;48.078;11.968;2023-08-01T05:31:47;2.97;;;2.60;;
16828;SDS011;8531;48.078;11.968;2023-08-01T05:34:12;5.05;;;3.53;;
16828;SDS011;8531;48.078;11.968;2023-08-01T05:36:38;6.13;;;4.43;;
16828;SDS011;8531;48.078;11.968;2023-08-01T05:39:04;6.18;;;3.72;;
16828;SDS011;8531;48.078;11.968;2023-08-01T05:41:29;3.47;;;3.03;;
16828;SDS011;8531;48.078;11.968;2023-08-01T05:43:56;4.55;;;2.65;;
16828;SDS011;8531;48.078;11.968;2023-08-01T05:46:23;3.80;;;2.80;;
16828;SDS011;8531;48.078;11.968;2023-08-01T05:48:48;4.88;;;3.10;;
16828;SDS011;8531;48.078;11.968;2023-08-01T05:51:14;4.18;;;3.58;;
16828;SDS011;8531;48.078;11.968;2023-08-01T05:53:40;11.07;;;5.15;;
16828;SDS011;8531;48.078;11.968;2023-08-01T05:56:05;10.50;;;6.00;;
16828;SDS011;8531;48.078;11.968;2023-08-01T05:58:31;5.93;;;3.45;;
16828;SDS011;8531;48.078;11.968;2023-08-01T06:00:57;3.97;;;2.90;;
16828;SDS011;8531;48.078;11.968;2023-08-01T06:03:23;5.07;;;2.90;;
16828;SDS011;8531;48.078;11.968;2023-08-01T06:05:48;6.43;;;2.88;;
16828;SDS011;8531;48.078;11.968;2023-08-01T06:08:14;4.60;;;2.92;;
16828;SDS011;8531;48.078;11.968;2023-08-01T06:10:40;4.88;;;3.20;;
16828;SDS011;8531;48.078;11.968;2023-08-01T06:13:07;4.80;;;3.53;;
16828;SDS011;8531;48.078;11.968;2023-08-01T06:15:33;4.90;;;3.33;;
16828;SDS011;8531;48.078;11.968;2023-08-01T06:17:58;5.25;;;3.30;;
16828;SDS011;8531;48.078;11.968;2023-08-01T06:20:24;3.67;;;3.20;;
16828;SDS011;8531;48.078;11.968;2023-08-01T06:22:50;3.90;;;3.05;;
16828;SDS011;8531;48.078;11.968;2023-08-01T06:25:16;5.13;;;3.00;;
16828;SDS011;8531;48.078;11.968;2023-08-01T06:27:42;6.05;;;3.60;;
16828;SDS011;8531;48.078;11.968;2023-08-01T06:30:08;5.65;;;3.65;;
16828;SDS011;8531;48.078;11.968;2023-08-01T06:32:34;6.50;;;5.05;;
16828;SDS011;8531;48.078;11.968;2023-08-01T06:34:59;3.85;;;2.75;;
16828;SDS011;8531;48.078;11.968;2023-08-01T06:37:25;3.97;;;2.65;;
16828;SDS011;8531;48.078;11.968;2023-08-01T06:39:51;4.53;;;3.55;;
16828;SDS011;8531;48.078;11.968;2023-08-01T06:42:16;3.55;;;3.03;;
16828;SDS011;8531;48.078;11.968;2023-08-01T06:44:42;6.97;;;3.53;;
16828;SDS011;8531;48.078;11.968;2023-08-01T06:47:08;4.70;;;2.88;;
16828;SDS011;8531;48.078;11.968;2023-08-01T06:49:33;5.05;;;3.35;;
16828;SDS011;8531;48.078;11.968;2023-08-01T06:51:59;5.32;;;3.60;;
16828;SDS011;8531;48.078;11.968;2023-08-01T06:54:25;3.60;;;3.10;;
16828;SDS011;8531;48.078;11.968;2023-08-01T06:56:50;4.97;;;3.90;;
16828;SDS011;8531;48.078;11.968;2023-08-01T06:59:16;3.85;;;3.10;;
16828;SDS011;8531;48.078;11.968;2023-08-01T07:01:42;3.78;;;3.17;;
16828;SDS011;8531;48.078;11.968;2023-08-01T07:04:09;6.55;;;3.33;;
16828;SDS011;8531;48.078;11.968;2023-08-01T07:06:35;5.70;;;3.60;;
16828;SDS011;8531;48.078;11.968;2023-08-01T07:09:01;4.43;;;3.13;;
16828;SDS011;8531;48.078;11.968;2023-08-01T07:11:26;4.65;;;3.17;;
16828;SDS011;8531;48.078;11.968;2023-08-01T07:13:53;6.85;;;3.30;;
16828;SDS011;8531;48.078;11.968;2023-08-01T07:16:18;4.30;;;3.60;;
16828;SDS011;8531;48.078;11.968;2023-08-01T07:18:44;4.43;;;3.60;;
16828;SDS011;8531;48.078;11.968;2023-08-01T07:21:10;4.03;;;3.13;;
16828;SDS011;8531;48.078;11.968;2023-08-01T07:23:36;5.70;;;3.65;;
16828;SDS011;8531;48.078;11.968;2023-08-01T07:26:02;5.32;;;3.42;;
16828;SDS011;8531;48.078;11.968;2023-08-01T07:28:27;4.32;;;3.25;;
16828;SDS011;8531;48.078;11.968;2023-08-01T07:31:00;5.05;;;3.58;;
16828;SDS011;8531;48.078;11.968;2023-08-01T07:33:27;5.65;;;3.53;;
16828;SDS011;8531;48.078;11.968;2023-08-01T07:35:53;17.63;;;3.95;;
16828;SDS011;8531;48.078;11.968;2023-08-01T07:38:18;3.15;;;2.85;;
16828;SDS011;8531;48.078;11.968;2023-08-01T07:40:44;5.47;;;3.22;;
16828;SDS011;8531;48.078;11.968;2023-08-01T07:43:10;4.78;;;3.20;;
16828;SDS011;8531;48.078;11.968;2023-08-01T07:45:36;4.78;;;3.30;;
16828;SDS011;8531;48.078;11.968;2023-08-01T07:48:02;3.97;;;3.38;;
16828;SDS011;8531;48.078;11.968;2023-08-01T07:50:28;5.75;;;3.17;;
16828;SDS011;8531;48.078;11.968;2023-08-01T07:52:54;4.75;;;3.33;;
16828;SDS011;8531;48.078;11.968;2023-08-01T07:55:20;3.60;;;3.25;;
16828;SDS011;8531;48.078;11.968;2023-08-01T07:57:46;5.65;;;3.30;;
16828;SDS011;8531;48.078;11.968;2023-08-01T08:00:15;4.78;;;3.92;;
16828;SDS011;8531;48.078;11.968;2023-08-01T08:02:41;6.78;;;3.13;;
16828;SDS011;8531;48.078;11.968;2023-08-01T08:05:08;4.18;;;2.50;;
16828;SDS011;8531;48.078;11.968;2023-08-01T08:07:34;3.63;;;3.08;;
16828;SDS011;8531;48.078;11.968;2023-08-01T08:10:01;5.00;;;3.67;;
16828;SDS011;8531;48.078;11.968;2023-08-01T08:12:27;5.15;;;3.58;;
16828;SDS011;8531;48.078;11.968;2023-08-01T08:14:53;3.35;;;3.05;;
16828;SDS011;8531;48.078;11.968;2023-08-01T08:17:19;3.97;;;3.03;;
16828;SDS011;8531;48.078;11.968;2023-08-01T08:19:44;3.33;;;2.88;;
16828;SDS011;8531;48.078;11.968;2023-08-01T08:22:10;4.60;;;3.35;;
16828;SDS011;8531;48.078;11.968;2023-08-01T08:24:36;5.18;;;3.15;;
16828;SDS011;8531;48.078;11.968;2023-08-01T08:27:01;4.45;;;3.42;;
16828;SDS011;8531;48.078;11.968;2023-08-01T08:29:27;4.70;;;2.97;;
16828;SDS011;8531;48.078;11.968;2023-08-01T08:31:53;4.55;;;2.80;;
16828;SDS011;8531;48.078;11.968;2023-08-01T08:34:19;4.40;;;3.42;;
16828;SDS011;8531;48.078;11.968;2023-08-01T08:36:45;5.22;;;3.25;;
16828;SDS011;8531;48.078;11.968;2023-08-01T08:39:11;4.00;;;3.35;;
16828;SDS011;8531;48.078;11.968;2023-08-01T08:41:38;3.03;;;2.80;;
16828;SDS011;8531;48.078;11.968;2023-08-01T08:44:07;4.07;;;3.55;;
16828;SDS011;8531;48.078;11.968;2023-08-01T08:46:40;4.75;;;3.25;;
16828;SDS011;8531;48.078;11.968;2023-08-01T08:49:08;3.10;;;2.72;;
16828;SDS011;8531;48.078;11.968;2023-08-01T08:51:34;4.05;;;2.88;;
16828;SDS011;8531;48.078;11.968;2023-08-01T08:54:02;4.03;;;2.80;;
16828;SDS011;8531;48.078;11.968;2023-08-01T08:56:29;4.40;;;2.45;;
16828;SDS011;8531;48.078;11.968;2023-08-01T08:58:56;3.72;;;3.08;;
16828;SDS011;8531;48.078;11.968;2023-08-01T09:01:22;3.35;;;2.78;;
16828;SDS011;8531;48.078;11.968;2023-08-01T09:03:48;4.28;;;3.13;;
16828;SDS011;8531;48.078;11.968;2023-08-01T09:06:17;4.85;;;3.35;;
16828;SDS011;8531;48.078;11.968;2023-08-01T09:08:50;8.00;;;3.20;;
16828;SDS011;8531;48.078;11.968;2023-08-01T09:11:20;4.63;;;3.63;;
16828;SDS011;8531;48.078;11.968;2023-08-01T09:13:46;6.78;;;2.92;;
16828;SDS011;8531;48.078;11.968;2023-08-01T09:16:12;5.28;;;3.28;;
16828;SDS011;8531;48.078;11.968;2023-08-01T09:18:52;3.38;;;2.67;;
16828;SDS011;8531;48.078;11.968;2023-08-01T09:21:21;4.50;;;3.17;;
16828;SDS011;8531;48.078;11.968;2023-08-01T09:23:47;3.78;;;3.22;;
16828;SDS011;8531;48.078;11.968;2023-08-01T09:26:13;4.50;;;3.42;;
16828;SDS011;8531;48.078;11.968;2023-08-01T09:28:39;3.72;;;3.00;;
16828;SDS011;8531;48.078;11.968;2023-08-01T09:31:05;4.38;;;3.38;;
16828;SDS011;8531;48.078;11.968;2023-08-01T09:33:37;3.85;;;2.80;;
16828;SDS011;8531;48.078;11.968;2023-08-01T09:36:07;4.25;;;3.42;;
16828;SDS011;8531;48.078;11.968;2023-08-01T09:38:37;5.70;;;3.22;;
16828;SDS011;8531;48.078;11.968;2023-08-01T09:41:03;3.40;;;2.80;;
16828;SDS011;8531;48.078;11.968;2023-08-01T09:43:33;3.20;;;2.70;;
16828;SDS011;8531;48.078;11.968;2023-08-01T09:46:00;3.38;;;2.95;;
16828;SDS011;8531;48.078;11.968;2023-08-01T09:48:27;3.97;;;2.95;;
16828;SDS011;8531;48.078;11.968;2023-08-01T09:51:09;5.25;;;3.15;;
16828;SDS011;8531;48.078;11.968;2023-08-01T09:53:52;3.65;;;3.10;;
16828;SDS011;8531;48.078;11.968;2023-08-01T09:56:21;4.03;;;3.22;;
16828;SDS011;8531;48.078;11.968;2023-08-01T09:58:49;5.03;;;3.13;;
16828;SDS011;8531;48.078;11.968;2023-08-01T10:01:17;5.97;;;4.82;;
16828;SDS011;8531;48.078;11.968;2023-08-01T10:03:45;3.42;;;3.00;;
16828;SDS011;8531;48.078;11.968;2023-08-01T10:06:22;7.70;;;4.03;;
16828;SDS011;8531;48.078;11.968;2023-08-01T10:08:49;4.63;;;3.10;;
16828;SDS011;8531;48.078;11.968;2023-08-01T10:11:17;5.38;;;3.22;;
16828;SDS011;8531;48.078;11.968;2023-08-01T10:13:44;3.40;;;3.00;;
16828;SDS011;8531;48.078;11.968;2023-08-01T10:16:11;4.47;;;2.90;;
16828;SDS011;8531;48.078;11.968;2023-08-01T10:18:38;4.85;;;3.20;;
16828;SDS011;8531;48.078;11.968;2023-08-01T10:21:07;3.90;;;2.90;;
16828;SDS011;8531;48.078;11.968;2023-08-01T10:23:36;3.63;;;3.08;;
16828;SDS011;8531;48.078;11.968;2023-08-01T10:26:04;3.38;;;3.03;;
16828;SDS011;8531;48.078;11.968;2023-08-01T10:28:32;4.68;;;2.75;;
16828;SDS011;8531;48.078;11.968;2023-08-01T10:33:41;5.82;;;2.72;;
16828;SDS011;8531;48.078;11.968;2023-08-01T10:36:26;2.90;;;2.53;;
16828;SDS011;8531;48.078;11.968;2023-08-01T10:38:55;4.68;;;2.45;;
16828;SDS011;8531;48.078;11.968;2023-08-01T10:41:35;4.72;;;2.83;;
16828;SDS011;8531;48.078;11.968;2023-08-01T10:44:05;4.03;;;2.75;;
16828;SDS011;8531;48.078;11.968;2023-08-01T10:49:32;4.43;;;3.28;;
16828;SDS011;8531;48.078;11.968;2023-08-01T10:52:26;4.03;;;2.55;;
16828;SDS011;8531;48.078;11.968;2023-08-01T10:54:59;3.22;;;2.35;;
16828;SDS011;8531;48.078;11.968;2023-08-01T10:57:27;4.07;;;2.50;;
16828;SDS011;8531;48.078;11.968;2023-08-01T10:59:54;3.33;;;2.58;;
16828;SDS011;8531;48.078;11.968;2023-08-01T11:02:25;5.70;;;2.80;;
16828;SDS011;8531;48.078;11.968;2023-08-01T11:04:57;3.85;;;2.42;;
16828;SDS011;8531;48.078;11.968;2023-08-01T11:07:24;3.45;;;2.42;;
16828;SDS011;8531;48.078;11.968;2023-08-01T11:10:01;3.72;;;2.20;;
16828;SDS011;8531;48.078;11.968;2023-08-01T11:12:27;4.30;;;2.10;;
16828;SDS011;8531;48.078;11.968;2023-08-01T11:14:53;5.28;;;2.70;;
16828;SDS011;8531;48.078;11.968;2023-08-01T11:17:24;4.25;;;2.67;;
16828;SDS011;8531;48.078;11.968;2023-08-01T11:19:50;3.65;;;2.40;;
16828;SDS011;8531;48.078;11.968;2023-08-01T11:22:16;5.05;;;2.10;;
16828;SDS011;8531;48.078;11.968;2023-08-01T11:24:49;4.75;;;2.97;;
16828;SDS011;8531;48.078;11.968;2023-08-01T11:27:15;3.10;;;2.28;;
16828;SDS011;8531;48.078;11.968;2023-08-01T11:29:41;4.13;;;2.00;;
16828;SDS011;8531;48.078;11.968;2023-08-01T11:32:06;2.88;;;2.22;;
16828;SDS011;8531;48.078;11.968;2023-08-01T11:34:39;2.88;;;2.10;;
16828;SDS011;8531;48.078;11.968;2023-08-01T11:37:12;3.95;;;1.90;;
16828;SDS011;8531;48.078;11.968;2023-08-01T11:39:39;2.25;;;2.05;;
16828;SDS011;8531;48.078;11.968;2023-08-01T11:42:05;3.03;;;2.20;;
16828;SDS011;8531;48.078;11.968;2023-08-01T11:44:31;2.38;;;1.80;;
16828;SDS011;8531;48.078;11.968;2023-08-01T11:46:57;3.83;;;1.98;;
16828;SDS011;8531;48.078;11.968;2023-08-01T11:49:23;2.65;;;1.90;;
16828;SDS011;8531;48.078;11.968;2023-08-01T11:51:51;2.58;;;1.70;;
16828;SDS011;8531;48.078;11.968;2023-08-01T11:54:16;2.72;;;1.67;;
16828;SDS011;8531;48.078;11.968;2023-08-01T11:56:42;3.13;;;1.60;;
16828;SDS011;8531;48.078;11.968;2023-08-01T11:59:17;2.70;;;1.77;;
16828;SDS011;8531;48.078;11.968;2023-08-01T12:01:44;2.38;;;1.85;;
16828;SDS011;8531;48.078;11.968;2023-08-01T12:04:11;2.05;;;1.50;;
16828;SDS011;8531;48.078;11.968;2023-08-01T12:06:37;2.95;;;1.95;;
16828;SDS011;8531;48.078;11.968;2023-08-01T12:09:08;1.92;;;1.63;;
16828;SDS011;8531;48.078;11.968;2023-08-01T12:11:38;2.90;;;1.70;;
16828;SDS011;8531;48.078;11.968;2023-08-01T12:16:35;2.70;;;2.05;;
16828;SDS011;8531;48.078;11.968;2023-08-01T12:19:02;4.32;;;1.95;;
16828;SDS011;8531;48.078;11.968;2023-08-01T12:21:28;3.13;;;2.20;;
16828;SDS011;8531;48.078;11.968;2023-08-01T12:23:54;5.72;;;1.80;;
16828;SDS011;8531;48.078;11.968;2023-08-01T12:26:20;2.75;;;1.77;;
16828;SDS011;8531;48.078;11.968;2023-08-01T12:28:46;2.85;;;2.05;;
16828;SDS011;8531;48.078;11.968;2023-08-01T12:31:15;2.55;;;1.85;;
16828;SDS011;8531;48.078;11.968;2023-08-01T12:33:42;2.40;;;1.90;;
16828;SDS011;8531;48.078;11.968;2023-08-01T12:36:08;3.58;;;2.15;;
16828;SDS011;8531;48.078;11.968;2023-08-01T12:38:33;2.60;;;1.75;;
16828;SDS011;8531;48.078;11.968;2023-08-01T12:41:00;2.38;;;1.90;;
16828;SDS011;8531;48.078;11.968;2023-08-01T12:43:26;5.05;;;2.42;;
16828;SDS011;8531;48.078;11.968;2023-08-01T12:45:52;2.53;;;1.80;;
16828;SDS011;8531;48.078;11.968;2023-08-01T12:48:18;2.70;;;2.10;;
16828;SDS011;8531;48.078;11.968;2023-08-01T12:50:44;2.05;;;1.70;;
16828;SDS011;8531;48.078;11.968;2023-08-01T12:53:11;2.65;;;2.15;;
16828;SDS011;8531;48.078;11.968;2023-08-01T12:55:37;2.30;;;1.70;;
16828;SDS011;8531;48.078;11.968;2023-08-01T12:58:03;1.73;;;1.45;;
16828;SDS011;8531;48.078;11.968;2023-08-01T13:00:32;2.08;;;1.73;;
16828;SDS011;8531;48.078;11.968;2023-08-01T13:02:57;2.50;;;1.92;;
16828;SDS011;8531;48.078;11.968;2023-08-01T13:05:23;1.70;;;1.30;;
16828;SDS011;8531;48.078;11.968;2023-08-01T13:07:49;2.05;;;1.45;;
16828;SDS011;8531;48.078;11.968;2023-08-01T13:10:15;1.75;;;1.30;;
16828;SDS011;8531;48.078;11.968;2023-08-01T13:12:40;1.63;;;1.52;;
16828;SDS011;8531;48.078;11.968;2023-08-01T13:15:06;1.90;;;1.38;;
16828;SDS011;8531;48.078;11.968;2023-08-01T13:17:32;2.58;;;1.65;;
16828;SDS011;8531;48.078;11.968;2023-08-01T13:19:58;2.05;;;1.20;;
16828;SDS011;8531;48.078;11.968;2023-08-01T13:22:23;1.42;;;1.00;;
16828;SDS011;8531;48.078;11.968;2023-08-01T13:24:49;2.85;;;1.30;;
16828;SDS011;8531;48.078;11.968;2023-08-01T13:27:15;1.67;;;1.20;;
16828;SDS011;8531;48.078;11.968;2023-08-01T13:29:40;1.95;;;1.40;;
16828;SDS011;8531;48.078;11.968;2023-08-01T13:32:06;1.80;;;1.30;;
16828;SDS011;8531;48.078;11.968;2023-08-01T13:34:32;1.85;;;1.42;;
16828;SDS011;8531;48.078;11.968;2023-08-01T13:36:58;2.05;;;1.20;;
16828;SDS011;8531;48.078;11.968;2023-08-01T13:39:24;1.83;;;1.17;;
16828;SDS011;8531;48.078;11.968;2023-08-01T13:41:50;1.85;;;1.25;;
16828;SDS011;8531;48.078;11.968;2023-08-01T13:44:15;2.63;;;1.40;;
16828;SDS011;8531;48.078;11.968;2023-08-01T13:46:41;3.60;;;1.30;;
16828;SDS011;8531;48.078;11.968;2023-08-01T13:49:07;1.20;;;1.00;;
16828;SDS011;8531;48.078;11.968;2023-08-01T13:51:33;3.75;;;1.33;;
16828;SDS011;8531;48.078;11.968;2023-08-01T13:53:59;1.77;;;1.23;;
16828;SDS011;8531;48.078;11.968;2023-08-01T13:56:25;5.45;;;1.40;;
16828;SDS011;8531;48.078;11.968;2023-08-01T13:58:51;1.15;;;0.90;;
16828;SDS011;8531;48.078;11.968;2023-08-01T14:01:17;1.85;;;1.30;;
16828;SDS011;8531;48.078;11.968;2023-08-01T14:03:43;1.83;;;1.20;;
16828;SDS011;8531;48.078;11.968;2023-08-01T14:06:10;3.50;;;1.55;;
16828;SDS011;8531;48.078;11.968;2023-08-01T14:08:37;1.38;;;1.25;;
16828;SDS011;8531;48.078;11.968;2023-08-01T14:11:04;4.18;;;1.13;;
16828;SDS011;8531;48.078;11.968;2023-08-01T14:13:31;2.33;;;1.30;;
16828;SDS011;8531;48.078;11.968;2023-08-01T14:15:57;1.85;;;1.33;;
16828;SDS011;8531;48.078;11.968;2023-08-01T14:18:24;1.67;;;1.40;;
16828;SDS011;8531;48.078;11.968;2023-08-01T14:20:49;2.10;;;1.60;;
16828;SDS011;8531;48.078;11.968;2023-08-01T14:23:15;2.33;;;1.40;;
16828;SDS011;8531;48.078;11.968;2023-08-01T14:25:41;1.60;;;1.15;;
16828;SDS011;8531;48.078;11.968;2023-08-01T14:28:07;2.92;;;1.38;;
16828;SDS011;8531;48.078;11.968;2023-08-01T14:30:33;2.75;;;1.40;;
16828;SDS011;8531;48.078;11.968;2023-08-01T14:33:02;1.55;;;1.40;;
16828;SDS011;8531;48.078;11.968;2023-08-01T14:35:29;1.40;;;1.10;;
16828;SDS011;8531;48.078;11.968;2023-08-01T14:37:55;1.85;;;1.50;;
16828;SDS011;8531;48.078;11.968;2023-08-01T14:40:21;1.73;;;1.45;;
16828;SDS011;8531;48.078;11.968;2023-08-01T14:42:47;2.15;;;1.42;;
16828;SDS011;8531;48.078;11.968;2023-08-01T14:45:13;2.22;;;1.60;;
16828;SDS011;8531;48.078;11.968;2023-08-01T14:47:39;5.13;;;1.52;;
16828;SDS011;8531;48.078;11.968;2023-08-01T14:50:07;2.67;;;1.75;;
16828;SDS011;8531;48.078;11.968;2023-08-01T14:52:32;2.15;;;1.50;;